LHBP/BUD METAR and TAF weather

Enter ICAO airport designator
Station Type Date Time Source
LHBP METAR 2019/04/20 18:00 UTC NOAA

LHBP 201800Z VRB01KT CAVOK 16/M01 Q1024 NOSIG


Station Type Date Time Source
LHBP Decoded METAR 2019/04/20 18:00 UTC NOAA

Budapest / Ferihegy, Hungary (LHBP) 47-26N 019-16E 185M
Apr 20, 2019 - 02:00 PM EDT / 2019.04.20 1800 UTC
Wind: Variable at 1 MPH (1 KT):0
Visibility: greater than 7 mile(s):0
Temperature: 60 F (16 C)
Dew Point: 30 F (-1 C)
Relative Humidity: 31%
Pressure (altimeter): 30.24 in. Hg (1024 hPa)
ob: LHBP 201800Z VRB01KT CAVOK 16/M01 Q1024 NOSIG
cycle: 18

Station Type Date Time Source
LHBP TAF 2019/04/20 18:27 UTC NOAA

TAF TAF LHBP 201715Z 2018/2118 VRB03KT CAVOK
BECMG 2107/2109 30010KT
BECMG 2116/2118 02005KT

Example: see airport list